Time;durP1;ratioP1;P1;durP2;ratioP2;P2;SDS_P1;SDS_P2;PMS_P1;PMS_P2;Temp;Humidity;BMP_temperature;BMP_pressure;BME280_temperature;BME280_humidity;BME280_pressure;Samples;Min_cycle;Max_cycle;Signal;HPM_P1;HPM_P2
2021/04/16 04:02:28;;;;;;;4.70;2.03;;;5.50;99.90;;;;;;4987807;23;20311;-73
2021/04/16 04:04:54;;;;;;;2.30;2.20;;;5.50;99.90;;;;;;4898832;29;20289;-73
2021/04/16 04:07:20;;;;;;;1.80;1.80;;;5.50;99.90;;;;;;4896755;29;20215;-73
2021/04/16 04:09:46;;;;;;;2.28;2.13;;;5.50;99.90;;;;;;4897990;29;20210;-73
2021/04/16 04:12:13;;;;;;;1.88;1.88;;;5.50;99.90;;;;;;4880362;29;20235;-72
2021/04/16 04:14:39;;;;;;;2.60;2.40;;;5.50;99.90;;;;;;4882235;29;20226;-72
2021/04/16 04:17:06;;;;;;;2.03;2.03;;;5.50;99.90;;;;;;4882343;29;20569;-75
2021/04/16 04:19:34;;;;;;;4.03;1.90;;;5.50;99.90;;;;;;4881997;29;20219;-73
2021/04/16 04:22:02;;;;;;;2.35;2.25;;;5.40;99.90;;;;;;4879104;29;20224;-73
2021/04/16 04:24:28;;;;;;;2.30;2.20;;;5.40;99.90;;;;;;4880068;29;20315;-71
2021/04/16 04:26:55;;;;;;;1.92;1.83;;;5.40;99.90;;;;;;4861838;29;20273;-70
2021/04/16 04:29:24;;;;;;;2.33;2.20;;;5.40;99.90;;;;;;4859419;29;20213;-70
2021/04/16 04:31:51;;;;;;;2.50;2.30;;;5.40;99.90;;;;;;4881700;29;20643;-70
2021/04/16 04:34:19;;;;;;;2.42;2.20;;;5.40;99.90;;;;;;4891253;29;20233;-70
2021/04/16 04:36:47;;;;;;;2.30;2.10;;;5.40;99.90;;;;;;4880757;29;20228;-70
2021/04/16 04:39:13;;;;;;;2.05;2.05;;;5.40;99.90;;;;;;4890382;29;20207;-70
2021/04/16 04:41:40;;;;;;;2.65;2.45;;;5.40;99.90;;;;;;4886246;29;20608;-71
2021/04/16 04:44:06;;;;;;;3.83;2.65;;;5.40;99.90;;;;;;4890158;29;20835;-70
2021/04/16 04:46:32;;;;;;;2.40;2.30;;;5.40;99.90;;;;;;4887478;29;20207;-71
2021/04/16 04:48:58;;;;;;;2.47;2.22;;;5.40;99.90;;;;;;4877744;29;20204;-70
2021/04/16 04:51:25;;;;;;;3.97;2.45;;;5.40;99.90;;;;;;4870494;29;20675;-70
2021/04/16 04:53:52;;;;;;;2.35;2.17;;;5.40;99.90;;;;;;4867499;29;20203;-71
2021/04/16 04:56:18;;;;;;;3.13;2.17;;;5.40;99.90;;;;;;4872196;29;20643;-70
2021/04/16 04:58:44;;;;;;;2.55;2.45;;;5.50;99.90;;;;;;4890316;29;20214;-69
2021/04/16 05:01:10;;;;;;;3.15;2.28;;;5.50;99.90;;;;;;4881578;29;20240;-69
2021/04/16 05:03:36;;;;;;;3.28;2.40;;;5.50;99.90;;;;;;4863726;29;20208;-69
2021/04/16 05:06:03;;;;;;;2.65;2.03;;;5.50;99.90;;;;;;4879429;29;20214;-69
2021/04/16 05:08:29;;;;;;;2.58;2.47;;;5.50;99.90;;;;;;4896012;29;20267;-69
2021/04/16 05:10:56;;;;;;;2.90;2.70;;;5.50;99.90;;;;;;4887779;29;20227;-71
2021/04/16 05:13:22;;;;;;;3.42;2.63;;;5.60;99.90;;;;;;4880279;29;20207;-71
2021/04/16 05:15:48;;;;;;;2.60;2.38;;;5.60;99.90;;;;;;4871671;29;20232;-71
2021/04/16 05:18:14;;;;;;;2.50;2.30;;;5.60;99.90;;;;;;4877976;29;20822;-70
2021/04/16 05:20:40;;;;;;;2.35;2.20;;;5.60;99.90;;;;;;4879485;29;20230;-70
2021/04/16 05:23:07;;;;;;;4.18;2.70;;;5.60;99.90;;;;;;4896167;29;20275;-70
2021/04/16 05:25:33;;;;;;;2.80;2.70;;;5.70;99.90;;;;;;4894310;29;20208;-70
2021/04/16 05:28:00;;;;;;;2.47;2.30;;;5.70;99.90;;;;;;4896972;29;20227;-71
2021/04/16 05:30:27;;;;;;;3.00;2.80;;;5.70;99.90;;;;;;4893404;29;20711;-70
2021/04/16 05:32:53;;;;;;;4.22;2.70;;;5.70;99.90;;;;;;4889205;29;20207;-70
2021/04/16 05:35:19;;;;;;;4.05;3.13;;;5.80;99.90;;;;;;4877187;29;20216;-71
2021/04/16 05:37:45;;;;;;;5.15;3.55;;;5.80;99.90;;;;;;4876324;29;20279;-70
2021/04/16 05:40:13;;;;;;;3.22;2.92;;;5.80;99.90;;;;;;4877330;29;20212;-71
2021/04/16 05:42:39;;;;;;;3.45;3.22;;;5.90;99.90;;;;;;4876971;29;20204;-70
2021/04/16 05:45:08;;;;;;;3.40;3.20;;;5.90;99.90;;;;;;4877384;29;20216;-70
2021/04/16 05:47:34;;;;;;;3.08;2.80;;;6.00;99.90;;;;;;4876988;29;20208;-70
2021/04/16 05:50:01;;;;;;;4.38;3.70;;;6.00;99.90;;;;;;4877406;29;20662;-70
2021/04/16 05:52:28;;;;;;;3.88;3.38;;;6.10;99.90;;;;;;4876648;29;20662;-70
2021/04/16 05:54:54;;;;;;;3.58;3.30;;;6.40;99.90;;;;;;4877443;29;20215;-69
2021/04/16 05:57:20;;;;;;;4.32;3.00;;;6.60;99.90;;;;;;4877557;29;20263;-69
2021/04/16 05:59:46;;;;;;;2.88;2.78;;;6.70;99.90;;;;;;4877213;29;20208;-76
2021/04/16 06:02:28;;;;;;;3.60;2.70;;;6.90;99.90;;;;;;4876924;29;20235;-73
2021/04/16 06:04:55;;;;;;;2.95;2.75;;;7.10;99.90;;;;;;4881222;29;20240;-69
2021/04/16 06:07:22;;;;;;;3.53;3.10;;;7.40;99.90;;;;;;4880339;29;20267;-72
2021/04/16 06:09:50;;;;;;;3.30;3.10;;;7.50;99.90;;;;;;4880337;29;20651;-71
2021/04/16 06:12:17;;;;;;;2.75;2.58;;;7.50;99.90;;;;;;4880556;29;20239;-71
2021/04/16 06:14:43;;;;;;;3.28;3.00;;;7.50;99.90;;;;;;4879688;29;20263;-72
2021/04/16 06:17:10;;;;;;;3.60;3.38;;;7.30;99.90;;;;;;4880143;29;20232;-71
2021/04/16 06:19:38;;;;;;;3.40;3.20;;;7.20;99.90;;;;;;4893756;29;20247;-70
2021/04/16 06:22:04;;;;;;;4.57;3.50;;;7.10;99.90;;;;;;4898325;29;20235;-71
2021/04/16 06:24:31;;;;;;;3.65;3.40;;;7.10;99.90;;;;;;4884725;29;20211;-69
2021/04/16 06:26:57;;;;;;;3.35;3.10;;;7.10;99.90;;;;;;4880924;29;20207;-70
2021/04/16 06:29:23;;;;;;;3.50;3.20;;;7.10;99.90;;;;;;4891389;29;20207;-71
2021/04/16 06:31:49;;;;;;;5.78;4.10;;;7.10;99.90;;;;;;4898989;29;20234;-70
2021/04/16 06:34:15;;;;;;;4.18;3.88;;;7.10;99.90;;;;;;4887569;29;20216;-70
2021/04/16 06:36:43;;;;;;;4.32;3.92;;;7.10;99.90;;;;;;4880104;29;21012;-70
2021/04/16 06:39:09;;;;;;;4.30;3.95;;;7.10;99.90;;;;;;4884344;29;20626;-70
2021/04/16 06:41:38;;;;;;;4.38;3.80;;;7.10;99.90;;;;;;4884288;29;20599;-71
2021/04/16 06:44:14;;;;;;;4.13;3.72;;;7.00;99.90;;;;;;4872287;29;20375;-69
2021/04/16 06:46:43;;;;;;;5.75;5.25;;;7.10;99.90;;;;;;4877897;29;20207;-70
2021/04/16 06:49:13;;;;;;;5.03;4.03;;;7.10;99.90;;;;;;4889425;29;20212;-70
2021/04/16 06:51:44;;;;;;;3.80;3.50;;;7.20;99.90;;;;;;4887481;29;20572;-69
2021/04/16 06:54:16;;;;;;;4.32;4.03;;;7.20;99.90;;;;;;4890539;29;20212;-73
2021/04/16 06:56:46;;;;;;;8.63;3.17;;;7.20;99.90;;;;;;4887037;29;20226;-70
2021/04/16 06:59:20;;;;;;;5.28;3.15;;;7.20;99.90;;;;;;4885722;29;20222;-71
2021/04/16 07:01:50;;;;;;;3.60;3.40;;;7.20;99.90;;;;;;4861350;29;20292;-71
2021/04/16 07:04:39;;;;;;;3.65;2.80;;;7.20;99.90;;;;;;4862462;29;20221;-72
2021/04/16 07:07:15;;;;;;;3.83;3.60;;;7.30;99.90;;;;;;4863310;29;20204;-71
2021/04/16 07:09:46;;;;;;;4.07;2.75;;;7.40;99.90;;;;;;4882420;29;20234;-71
2021/04/16 07:12:14;;;;;;;1.90;1.80;;;7.50;99.90;;;;;;4881248;29;20779;-71
2021/04/16 07:14:43;;;;;;;1.80;1.80;;;7.60;99.90;;;;;;4881121;29;20663;-72
2021/04/16 07:17:13;;;;;;;4.82;2.60;;;7.60;99.90;;;;;;4881355;29;20228;-72
2021/04/16 07:19:40;;;;;;;2.03;1.98;;;7.70;99.90;;;;;;4879678;29;20313;-71
2021/04/16 07:22:16;;;;;;;2.55;2.35;;;7.80;99.90;;;;;;4880254;29;20228;-71
2021/04/16 07:24:45;;;;;;;2.33;2.13;;;7.90;99.90;;;;;;4874459;29;20275;-71
2021/04/16 07:27:18;;;;;;;1.90;1.80;;;8.00;99.90;;;;;;4879610;29;20208;-72
2021/04/16 07:29:47;;;;;;;1.60;1.50;;;8.10;99.90;;;;;;4865928;29;20223;-72
2021/04/16 07:32:18;;;;;;;2.70;1.42;;;8.10;99.90;;;;;;4858868;29;20228;-71
2021/04/16 07:34:48;;;;;;;1.45;1.38;;;8.10;99.90;;;;;;4859708;29;20270;-71
2021/04/16 07:37:18;;;;;;;1.50;1.50;;;8.10;99.90;;;;;;4858760;29;20296;-71
2021/04/16 07:40:00;;;;;;;1.88;1.52;;;8.10;99.90;;;;;;4879491;29;20212;-71
2021/04/16 07:42:39;;;;;;;3.15;1.52;;;8.20;99.90;;;;;;4878941;29;20231;-72
2021/04/16 07:45:20;;;;;;;1.35;1.25;;;8.20;99.90;;;;;;4881468;29;20211;-72
2021/04/16 07:47:47;;;;;;;0.77;0.77;;;8.30;99.90;;;;;;4894381;29;20208;-72
2021/04/16 07:50:27;;;;;;;1.40;1.40;;;8.30;99.90;;;;;;4881940;29;20219;-72
2021/04/16 07:52:54;;;;;;;1.50;1.50;;;8.30;99.90;;;;;;4894092;29;20215;-72
2021/04/16 07:55:24;;;;;;;1.60;1.60;;;8.30;99.90;;;;;;4881966;29;20669;-72
2021/04/16 07:58:03;;;;;;;1.50;1.45;;;8.40;99.90;;;;;;4886626;29;20277;-72
2021/04/16 08:00:35;;;;;;;1.23;1.23;;;8.40;99.90;;;;;;4869923;29;20259;-72
2021/04/16 08:03:09;;;;;;;2.75;1.90;;;8.40;99.90;;;;;;4894696;29;20222;-71
2021/04/16 08:05:38;;;;;;;1.42;1.42;;;8.50;99.90;;;;;;4880883;29;20215;-72
2021/04/16 08:08:13;;;;;;;1.70;1.60;;;8.60;99.90;;;;;;4883604;29;20219;-71
2021/04/16 08:10:40;;;;;;;1.48;1.48;;;8.70;99.90;;;;;;4878482;29;20264;-69
2021/04/16 08:13:10;;;;;;;1.48;1.48;;;8.80;99.90;;;;;;4878067;29;20306;-69
2021/04/16 08:15:36;;;;;;;1.40;1.25;;;8.80;99.90;;;;;;4878534;29;20211;-69
2021/04/16 08:18:11;;;;;;;1.90;1.80;;;8.80;99.90;;;;;;4878238;29;20256;-69
2021/04/16 08:20:43;;;;;;;1.88;1.88;;;8.70;99.90;;;;;;4877891;29;20477;-69
2021/04/16 08:23:13;;;;;;;1.85;1.75;;;8.80;99.90;;;;;;4861637;29;20204;-70
2021/04/16 08:25:45;;;;;;;1.70;1.70;;;8.80;99.90;;;;;;4861144;29;20217;-70
2021/04/16 08:28:15;;;;;;;2.47;2.20;;;8.80;99.90;;;;;;4872663;29;20213;-70
2021/04/16 08:30:56;;;;;;;1.60;1.60;;;9.00;99.90;;;;;;4885800;29;20322;-70
2021/04/16 08:33:30;;;;;;;1.98;1.88;;;9.10;99.90;;;;;;4860176;29;20630;-70
2021/04/16 08:36:05;;;;;;;1.90;1.80;;;9.10;99.90;;;;;;4878462;29;20199;-70
2021/04/16 08:38:37;;;;;;;1.63;1.52;;;9.20;99.90;;;;;;4873070;29;20220;-70
2021/04/16 08:41:08;;;;;;;1.92;1.45;;;9.20;99.90;;;;;;4875487;29;20564;-70
2021/04/16 08:43:38;;;;;;;1.98;1.85;;;9.10;99.90;;;;;;4877440;29;20208;-70
2021/04/16 08:46:14;;;;;;;1.45;1.35;;;9.20;99.90;;;;;;4877832;29;20216;-70
2021/04/16 08:48:46;;;;;;;1.15;1.15;;;9.30;99.90;;;;;;4870531;29;20661;-70
2021/04/16 08:51:16;;;;;;;1.33;1.30;;;9.50;99.90;;;;;;4881151;29;20710;-70
2021/04/16 08:53:44;;;;;;;1.30;1.30;;;9.40;99.90;;;;;;4880747;29;20261;-69
2021/04/16 08:56:17;;;;;;;1.70;1.58;;;9.50;99.90;;;;;;4880878;29;20224;-70
2021/04/16 08:58:45;;;;;;;2.08;2.08;;;9.60;99.90;;;;;;4859992;29;20234;-70
2021/04/16 09:01:14;;;;;;;1.75;1.63;;;9.70;99.90;;;;;;4873303;29;20328;-70
2021/04/16 09:03:44;;;;;;;1.40;1.40;;;9.70;99.90;;;;;;4875179;29;20219;-70
2021/04/16 09:06:26;;;;;;;2.05;1.63;;;9.70;99.90;;;;;;4877432;29;20874;-70
2021/04/16 09:08:54;;;;;;;1.20;1.15;;;9.70;99.90;;;;;;4877504;29;20271;-70
2021/04/16 09:11:51;;;;;;;1.30;1.30;;;9.80;98.80;;;;;;4877517;29;20228;-70
2021/04/16 09:14:55;;;;;;;1.75;1.00;;;9.80;99.10;;;;;;4876290;29;20216;-71
2021/04/16 09:17:55;;;;;;;1.15;1.15;;;9.80;96.60;;;;;;4859711;29;20287;-71
2021/04/16 09:20:23;;;;;;;0.75;0.75;;;9.80;95.40;;;;;;4877527;29;20502;-71
2021/04/16 09:22:51;;;;;;;0.90;0.90;;;9.90;94.50;;;;;;4886492;29;20267;-71
2021/04/16 09:25:41;;;;;;;1.00;1.00;;;9.80;93.60;;;;;;4873530;29;20215;-72
2021/04/16 09:28:34;;;;;;;0.68;0.68;;;9.80;93.80;;;;;;4875830;29;20251;-71
2021/04/16 09:31:03;;;;;;;0.90;0.90;;;9.80;93.40;;;;;;4877582;29;20712;-70
2021/04/16 09:33:45;;;;;;;0.82;0.82;;;9.80;93.10;;;;;;4873930;29;20212;-70
2021/04/16 09:36:23;;;;;;;1.00;0.77;;;9.90;92.80;;;;;;4875918;29;20287;-73
2021/04/16 09:38:58;;;;;;;0.93;0.93;;;9.90;93.10;;;;;;4879608;29;20212;-73
2021/04/16 09:41:38;;;;;;;1.05;1.05;;;10.00;91.90;;;;;;4875026;29;20239;-71
2021/04/16 09:44:35;;;;;;;1.17;1.17;;;10.00;92.20;;;;;;4875354;29;20624;-72
2021/04/16 09:47:05;;;;;;;1.20;0.88;;;10.00;91.70;;;;;;4883676;29;20222;-72
2021/04/16 09:49:35;;;;;;;0.50;0.50;;;9.90;92.10;;;;;;4886352;29;20214;-71
2021/04/16 09:52:36;;;;;;;1.13;0.70;;;10.00;92.20;;;;;;4882140;29;20641;-71
2021/04/16 09:55:42;;;;;;;3.22;0.88;;;10.10;92.00;;;;;;4881228;29;20210;-71
2021/04/16 09:58:10;;;;;;;0.93;0.80;;;10.30;92.30;;;;;;4878832;29;20700;-71
2021/04/16 10:01:02;;;;;;;1.65;0.70;;;10.50;91.60;;;;;;4881251;29;20228;-71
2021/04/16 10:03:42;;;;;;;0.93;0.90;;;10.40;91.30;;;;;;4882166;29;20263;-71
2021/04/16 10:06:21;;;;;;;0.90;0.90;;;10.40;91.60;;;;;;4897600;29;20218;-71
2021/04/16 10:08:47;;;;;;;1.00;1.00;;;10.30;91.10;;;;;;4890658;29;20645;-69
2021/04/16 10:11:17;;;;;;;2.75;1.30;;;10.40;91.60;;;;;;4882654;29;20231;-70
2021/04/16 10:13:44;;;;;;;0.65;0.65;;;10.50;90.80;;;;;;4882266;29;20248;-69
2021/04/16 10:16:19;;;;;;;2.22;0.90;;;10.60;91.00;;;;;;4880451;29;20255;-70
2021/04/16 10:18:46;;;;;;;0.60;0.60;;;10.70;89.90;;;;;;4881340;29;20215;-70
2021/04/16 10:21:26;;;;;;;0.68;0.68;;;10.70;89.70;;;;;;4887362;29;20231;-70
2021/04/16 10:24:26;;;;;;;0.90;0.90;;;10.80;90.30;;;;;;4890949;29;20209;-70
2021/04/16 12:40:07;;;;;;;1.00;0.45;;;11.20;67.40;;;;;;4878375;29;20295;-73
2021/04/16 12:42:34;;;;;;;0.77;0.50;;;11.30;68.10;;;;;;4878152;29;20239;-72
2021/04/16 12:45:01;;;;;;;0.95;0.80;;;11.50;69.60;;;;;;4878171;29;20580;-72
2021/04/16 12:47:30;;;;;;;1.85;0.50;;;11.60;66.50;;;;;;4877922;29;20230;-72
2021/04/16 12:49:57;;;;;;;0.63;0.60;;;11.60;64.00;;;;;;4878405;29;20636;-72
2021/04/16 12:52:23;;;;;;;0.73;0.40;;;11.50;65.00;;;;;;4877638;29;20247;-72
2021/04/16 12:54:52;;;;;;;1.17;0.68;;;11.40;67.00;;;;;;4878612;29;20286;-73
2021/04/16 12:57:21;;;;;;;0.88;0.88;;;11.50;69.70;;;;;;4878307;29;20538;-71
2021/04/16 12:59:48;;;;;;;0.65;0.65;;;11.50;69.60;;;;;;4877753;29;20216;-71
2021/04/16 13:02:22;;;;;;;0.70;0.70;;;11.50;71.10;;;;;;4877186;29;20239;-70
2021/04/16 13:04:49;;;;;;;0.50;0.50;;;11.40;70.40;;;;;;4878172;29;20211;-70
2021/04/16 13:07:15;;;;;;;0.50;0.50;;;11.40;71.80;;;;;;4877843;29;20271;-70
2021/04/16 13:09:41;;;;;;;0.70;0.70;;;11.50;71.20;;;;;;4878080;29;20215;-70
2021/04/16 13:12:08;;;;;;;0.70;0.70;;;11.50;70.90;;;;;;4878964;29;20243;-70
2021/04/16 13:14:35;;;;;;;0.73;0.73;;;11.30;71.30;;;;;;4883753;29;20220;-70
2021/04/16 13:17:01;;;;;;;0.80;0.80;;;11.30;71.20;;;;;;4883826;29;20254;-70
2021/04/16 13:19:33;;;;;;;2.95;1.05;;;11.40;72.20;;;;;;4883703;29;20211;-70
2021/04/16 13:22:05;;;;;;;1.40;0.90;;;11.40;72.10;;;;;;4883733;29;20242;-70
2021/04/16 13:24:33;;;;;;;1.88;1.77;;;11.40;72.70;;;;;;4883782;29;20211;-70
2021/04/16 13:27:00;;;;;;;0.90;0.90;;;11.30;71.40;;;;;;4884603;29;20208;-71
2021/04/16 13:29:26;;;;;;;1.17;0.93;;;11.30;71.50;;;;;;4883429;29;20211;-70
2021/04/16 13:31:52;;;;;;;2.10;1.08;;;11.30;71.40;;;;;;4883710;29;20231;-70
2021/04/16 13:34:19;;;;;;;2.00;1.20;;;11.40;72.00;;;;;;4883428;29;20538;-70
2021/04/16 13:36:46;;;;;;;1.52;1.48;;;11.50;72.40;;;;;;4883740;29;20227;-70
2021/04/16 13:39:12;;;;;;;0.90;0.90;;;11.70;73.00;;;;;;4883946;29;20222;-70
2021/04/16 13:41:39;;;;;;;1.00;1.00;;;11.80;72.20;;;;;;4883691;29;20252;-72
2021/04/16 13:44:06;;;;;;;0.90;0.90;;;11.80;72.00;;;;;;4883773;29;20582;-71
2021/04/16 13:46:35;;;;;;;1.20;0.75;;;11.80;72.80;;;;;;4884264;29;20253;-71
2021/04/16 13:49:03;;;;;;;0.65;0.65;;;11.60;72.00;;;;;;4884017;29;20211;-71
2021/04/16 13:51:31;;;;;;;1.05;1.05;;;11.40;71.70;;;;;;4883301;29;20602;-70
2021/04/16 13:53:58;;;;;;;2.00;1.17;;;11.10;73.90;;;;;;4883932;29;20251;-70
2021/04/16 13:56:24;;;;;;;1.02;1.00;;;11.10;74.70;;;;;;4884438;29;20307;-70
2021/04/16 13:58:50;;;;;;;1.85;0.85;;;11.00;74.10;;;;;;4883333;29;20208;-70
2021/04/16 14:01:16;;;;;;;0.75;0.75;;;10.90;73.00;;;;;;4884106;29;20250;-71
2021/04/16 14:03:44;;;;;;;1.30;1.20;;;10.80;73.40;;;;;;4883123;29;20216;-71
2021/04/16 14:06:15;;;;;;;2.05;1.20;;;10.80;73.30;;;;;;4884180;29;20614;-71
2021/04/16 14:08:47;;;;;;;1.65;0.90;;;10.80;74.20;;;;;;4883096;29;20199;-72
2021/04/16 14:11:14;;;;;;;0.90;0.90;;;10.80;75.70;;;;;;4884288;29;20242;-71
2021/04/16 14:13:40;;;;;;;7.13;1.25;;;10.90;76.50;;;;;;4882423;29;20208;-71
2021/04/16 14:16:08;;;;;;;1.15;1.10;;;11.00;77.40;;;;;;4874889;29;20260;-71
2021/04/16 14:18:37;;;;;;;3.50;1.40;;;11.10;76.20;;;;;;4882733;29;20247;-71
2021/04/16 14:21:04;;;;;;;1.20;1.20;;;11.20;76.20;;;;;;4883839;29;20260;-71
2021/04/16 14:23:31;;;;;;;1.50;1.00;;;11.30;75.20;;;;;;4881920;29;20314;-72
2021/04/16 14:25:57;;;;;;;2.05;0.90;;;11.40;74.40;;;;;;4880776;29;20216;-71
2021/04/16 14:28:25;;;;;;;1.77;1.08;;;11.50;73.70;;;;;;4880412;29;20286;-71
2021/04/16 14:30:52;;;;;;;1.02;1.02;;;11.50;74.10;;;;;;4880138;29;20232;-71
2021/04/16 14:33:24;;;;;;;0.95;0.95;;;11.30;74.30;;;;;;4880284;29;20248;-71
2021/04/16 14:35:50;;;;;;;1.40;1.30;;;11.30;75.70;;;;;;4880710;29;20212;-71
2021/04/16 14:38:16;;;;;;;1.60;1.50;;;11.30;74.90;;;;;;4880521;29;20235;-71
2021/04/16 14:40:42;;;;;;;1.27;1.27;;;11.40;73.80;;;;;;4880499;29;20379;-71
2021/04/16 14:43:09;;;;;;;1.08;1.08;;;11.40;73.50;;;;;;4880066;29;20216;-71
2021/04/16 14:45:39;;;;;;;2.60;1.25;;;11.50;72.80;;;;;;4880450;29;20586;-71
2021/04/16 14:48:07;;;;;;;2.92;0.77;;;11.40;71.40;;;;;;4880376;29;20596;-71
2021/04/16 14:50:33;;;;;;;2.58;0.85;;;11.40;69.70;;;;;;4880633;29;20231;-71
2021/04/16 14:53:03;;;;;;;2.58;1.42;;;11.30;69.80;;;;;;4879761;29;20240;-71
2021/04/16 14:55:32;;;;;;;0.93;0.93;;;11.20;71.10;;;;;;4880739;29;20580;-71
2021/04/16 14:57:59;;;;;;;1.02;1.02;;;11.30;73.10;;;;;;4880464;29;20228;-71
2021/04/16 15:00:28;;;;;;;1.10;1.02;;;11.40;73.00;;;;;;4879588;29;20232;-71
2021/04/16 15:02:55;;;;;;;1.92;1.48;;;11.40;72.60;;;;;;4879715;29;20701;-71
2021/04/16 15:05:23;;;;;;;2.47;1.13;;;11.50;72.30;;;;;;4880558;29;20219;-72
2021/04/16 15:07:52;;;;;;;1.10;1.10;;;11.40;72.80;;;;;;4880041;29;20212;-71
2021/04/16 15:10:22;;;;;;;1.75;1.50;;;11.40;74.30;;;;;;4867434;29;20216;-74
2021/04/16 15:12:48;;;;;;;1.10;1.10;;;11.40;75.10;;;;;;4889185;29;20207;-73
2021/04/16 15:15:23;;;;;;;1.63;1.52;;;11.50;73.10;;;;;;4878766;29;20359;-73
2021/04/16 15:17:50;;;;;;;1.55;1.15;;;11.60;74.10;;;;;;4879490;29;20234;-72
2021/04/16 15:20:18;;;;;;;1.10;1.05;;;11.70;74.60;;;;;;4879717;29;20212;-72
2021/04/16 15:22:44;;;;;;;1.65;1.15;;;11.70;75.00;;;;;;4886419;29;20216;-72
2021/04/16 15:25:11;;;;;;;2.38;1.60;;;11.50;74.80;;;;;;4879535;29;20310;-72
2021/04/16 15:27:44;;;;;;;1.00;1.00;;;11.20;75.00;;;;;;4879137;29;20298;-72
2021/04/16 15:30:22;;;;;;;2.78;2.65;;;11.10;76.00;;;;;;4879270;29;20268;-73
2021/04/16 15:32:49;;;;;;;2.50;1.80;;;11.10;76.80;;;;;;4879648;29;20231;-72
2021/04/16 15:46:26;;;;;;;1.30;1.30;;;11.00;78.30;;;;;;4880234;29;20220;-72
2021/04/16 15:48:52;;;;;;;1.67;1.58;;;10.90;79.10;;;;;;4897942;29;20291;-72
2021/04/16 15:51:22;;;;;;;1.55;1.55;;;10.80;80.10;;;;;;4885216;29;20258;-72
2021/04/16 15:53:49;;;;;;;1.70;1.70;;;10.90;81.20;;;;;;4861679;29;20674;-73
2021/04/16 15:56:17;;;;;;;1.60;1.50;;;10.90;81.60;;;;;;4877883;29;20230;-73
2021/04/16 15:58:44;;;;;;;1.60;1.50;;;11.00;82.20;;;;;;4885966;29;20600;-72
2021/04/16 16:01:13;;;;;;;1.40;1.30;;;11.00;81.80;;;;;;4879750;29;20267;-72
2021/04/16 16:03:39;;;;;;;1.60;1.50;;;11.00;81.70;;;;;;4878694;29;20204;-73
2021/04/16 16:06:06;;;;;;;1.05;1.05;;;11.00;80.00;;;;;;4879361;29;20302;-73
2021/04/16 16:08:33;;;;;;;1.50;1.50;;;11.00;80.20;;;;;;4879533;29;20307;-72
2021/04/16 16:10:59;;;;;;;1.88;1.77;;;10.90;78.90;;;;;;4877172;29;20232;-72
2021/04/16 16:13:31;;;;;;;3.70;1.70;;;10.80;78.10;;;;;;4876719;29;20551;-73
2021/04/16 16:15:57;;;;;;;3.15;1.40;;;10.80;77.00;;;;;;4863975;29;20292;-73
2021/04/16 16:18:27;;;;;;;1.60;1.30;;;10.70;77.30;;;;;;4874894;29;20228;-73
2021/04/16 16:20:53;;;;;;;2.25;1.40;;;10.70;76.60;;;;;;4876815;29;20758;-73
2021/04/16 16:23:21;;;;;;;1.38;1.27;;;10.70;77.40;;;;;;4880830;29;20236;-73
2021/04/16 16:25:49;;;;;;;1.33;1.33;;;10.70;76.70;;;;;;4879919;29;20649;-73
2021/04/16 16:28:18;;;;;;;3.83;1.95;;;10.70;76.60;;;;;;4879528;29;20222;-73
2021/04/16 16:30:45;;;;;;;1.95;1.85;;;10.70;76.10;;;;;;4876557;29;20243;-72
2021/04/16 16:33:11;;;;;;;1.52;1.20;;;10.70;76.70;;;;;;4878936;29;20287;-72
2021/04/16 16:35:40;;;;;;;2.15;1.70;;;10.60;76.90;;;;;;4897756;29;20219;-72
2021/04/16 16:38:07;;;;;;;1.65;1.55;;;10.60;78.10;;;;;;4890573;29;20566;-73
2021/04/16 16:40:35;;;;;;;1.85;1.70;;;10.50;79.10;;;;;;4878301;29;20239;-72
2021/04/16 16:43:09;;;;;;;3.05;1.80;;;10.50;79.70;;;;;;4876318;29;20223;-72
2021/04/16 16:45:38;;;;;;;1.63;1.52;;;10.50;79.80;;;;;;4880516;29;20208;-72
2021/04/16 16:48:06;;;;;;;2.55;2.45;;;10.40;79.90;;;;;;4870036;29;20208;-72
2021/04/16 16:50:38;;;;;;;2.10;2.00;;;10.50;80.40;;;;;;4862236;29;20328;-72
2021/04/16 16:53:05;;;;;;;1.95;1.90;;;10.40;80.70;;;;;;4867139;29;20216;-72
2021/04/16 16:55:31;;;;;;;4.00;1.52;;;10.40;81.40;;;;;;4861539;29;20208;-71
2021/04/16 16:58:00;;;;;;;1.95;1.95;;;10.40;81.50;;;;;;4867476;29;20247;-71
2021/04/16 17:00:30;;;;;;;2.45;2.35;;;10.30;81.90;;;;;;4892994;29;20734;-72
2021/04/16 17:02:56;;;;;;;2.28;2.13;;;10.30;82.40;;;;;;4885714;29;20200;-71
2021/04/16 17:05:23;;;;;;;1.60;1.50;;;10.30;81.30;;;;;;4877107;29;20212;-71
2021/04/16 17:07:50;;;;;;;2.13;1.80;;;10.20;80.60;;;;;;4877037;29;20504;-70
2021/04/16 17:10:16;;;;;;;2.15;1.63;;;10.20;81.30;;;;;;4874351;29;20208;-70
2021/04/16 17:12:43;;;;;;;1.80;1.70;;;10.20;81.80;;;;;;4874783;29;20938;-70
2021/04/16 17:15:13;;;;;;;6.25;1.80;;;10.10;82.60;;;;;;4890854;29;20679;-71
2021/04/16 17:17:40;;;;;;;2.35;1.50;;;10.10;83.30;;;;;;4885569;29;20212;-71
2021/04/16 17:20:08;;;;;;;3.65;1.67;;;10.00;84.00;;;;;;4890677;29;20542;-72
2021/04/16 17:22:34;;;;;;;1.73;1.63;;;10.00;84.30;;;;;;4880684;29;20698;-72
2021/04/16 17:25:00;;;;;;;1.80;1.80;;;10.00;84.10;;;;;;4885375;29;20211;-72
2021/04/16 17:27:29;;;;;;;1.67;1.35;;;10.00;84.20;;;;;;4881039;29;20216;-72
2021/04/16 17:29:57;;;;;;;1.35;1.35;;;9.90;85.80;;;;;;4856550;29;20284;-72
2021/04/16 17:32:24;;;;;;;2.72;1.80;;;9.90;85.80;;;;;;4863269;29;20748;-72
2021/04/16 17:34:51;;;;;;;1.52;1.52;;;9.90;86.20;;;;;;4874988;29;20235;-72
2021/04/16 17:37:17;;;;;;;1.40;1.30;;;9.80;86.50;;;;;;4873009;29;20777;-72
2021/04/16 17:39:44;;;;;;;1.50;1.40;;;9.80;86.80;;;;;;4861765;29;20212;-72
2021/04/16 17:42:23;;;;;;;1.42;1.38;;;9.70;86.90;;;;;;4884872;29;20231;-72
2021/04/16 17:44:49;;;;;;;4.22;1.48;;;9.70;87.10;;;;;;4874612;29;20215;-72
2021/04/16 17:47:15;;;;;;;1.58;1.48;;;9.60;87.70;;;;;;4890280;29;20211;-72
2021/04/16 17:49:41;;;;;;;1.95;1.33;;;9.60;87.70;;;;;;4874466;29;20588;-72
2021/04/16 17:52:08;;;;;;;1.92;1.80;;;9.50;87.40;;;;;;4874429;29;20235;-72
2021/04/16 17:54:35;;;;;;;1.92;1.83;;;9.40;87.00;;;;;;4860979;29;20323;-72
2021/04/16 17:57:01;;;;;;;1.60;1.50;;;9.40;86.50;;;;;;4874875;29;20228;-72
2021/04/16 17:59:30;;;;;;;1.30;1.30;;;9.30;85.80;;;;;;4877183;29;20212;-70
2021/04/16 18:01:56;;;;;;;2.40;1.38;;;9.20;83.70;;;;;;4862846;29;20252;-71
2021/04/16 18:04:23;;;;;;;2.88;1.77;;;9.20;82.80;;;;;;4875161;29;20211;-70
2021/04/16 18:06:52;;;;;;;1.30;1.30;;;9.10;81.90;;;;;;4877684;29;20219;-70
2021/04/16 18:09:21;;;;;;;1.70;1.70;;;9.10;81.70;;;;;;4875488;29;20299;-72
2021/04/16 18:11:48;;;;;;;1.15;1.15;;;9.00;81.80;;;;;;4876223;29;20242;-70
2021/04/16 18:14:15;;;;;;;1.55;1.52;;;9.00;81.40;;;;;;4886265;29;20215;-71
2021/04/16 18:16:42;;;;;;;1.98;0.95;;;8.90;80.60;;;;;;4864045;29;20223;-70
2021/04/16 18:19:08;;;;;;;1.80;1.70;;;8.80;78.50;;;;;;4871675;29;20207;-71
2021/04/16 18:21:38;;;;;;;1.20;1.20;;;8.80;79.00;;;;;;4879610;29;20232;-71
2021/04/16 18:24:07;;;;;;;1.25;1.23;;;8.70;79.00;;;;;;4883835;29;20303;-70
2021/04/16 18:26:37;;;;;;;1.63;1.52;;;8.70;78.80;;;;;;4879963;29;20212;-71
2021/04/16 18:29:03;;;;;;;1.83;1.65;;;8.60;78.90;;;;;;4889188;29;20203;-71
2021/04/16 18:31:32;;;;;;;4.05;2.05;;;8.60;79.10;;;;;;4884119;29;20235;-71
2021/04/16 18:33:58;;;;;;;1.75;1.67;;;8.50;79.50;;;;;;4888394;29;20225;-71
2021/04/16 18:36:29;;;;;;;1.60;1.50;;;8.40;79.60;;;;;;4885492;29;20208;-71
2021/04/16 18:39:00;;;;;;;2.38;1.27;;;8.40;79.90;;;;;;4889948;29;20680;-71
2021/04/16 18:41:30;;;;;;;2.35;1.15;;;8.40;79.40;;;;;;4890838;29;20351;-71
2021/04/16 18:43:59;;;;;;;0.90;0.90;;;8.30;80.20;;;;;;4885360;29;20673;-71
2021/04/16 18:46:27;;;;;;;2.10;1.45;;;8.20;80.60;;;;;;4877763;29;20204;-72
2021/04/16 18:48:54;;;;;;;1.75;1.38;;;8.10;80.90;;;;;;4889108;29;20211;-72
2021/04/16 18:51:26;;;;;;;1.15;0.90;;;8.10;81.10;;;;;;4887188;29;20296;-74
2021/04/16 18:53:55;;;;;;;1.55;1.20;;;8.10;81.50;;;;;;4894473;29;20207;-73
2021/04/16 18:56:23;;;;;;;1.83;1.40;;;8.00;81.60;;;;;;4887398;29;20216;-73
2021/04/16 18:58:50;;;;;;;0.77;0.77;;;8.00;82.30;;;;;;4894384;29;20767;-73
2021/04/16 19:01:21;;;;;;;1.48;1.25;;;7.90;82.60;;;;;;4881079;29;20236;-73
2021/04/16 19:03:47;;;;;;;1.20;1.20;;;7.90;82.70;;;;;;4889788;29;20208;-73
2021/04/16 19:06:14;;;;;;;1.40;1.40;;;7.90;83.20;;;;;;4881611;29;20217;-74
2021/04/16 19:08:41;;;;;;;1.83;1.40;;;7.80;84.40;;;;;;4859254;29;20268;-73
2021/04/16 19:11:09;;;;;;;1.33;1.20;;;7.80;84.80;;;;;;4879427;29;20602;-73
2021/04/16 19:13:35;;;;;;;1.70;1.70;;;7.70;84.60;;;;;;4896696;29;20223;-72
2021/04/16 19:16:01;;;;;;;1.27;1.27;;;7.70;85.10;;;;;;4895556;29;20207;-72
2021/04/16 19:18:28;;;;;;;4.50;1.20;;;7.70;85.50;;;;;;4884462;29;20275;-72
2021/04/16 19:21:04;;;;;;;5.47;1.60;;;7.60;84.90;;;;;;4891882;29;20318;-72
2021/04/16 19:23:33;;;;;;;1.35;1.35;;;7.60;85.30;;;;;;4877239;29;20226;-72
2021/04/16 19:26:02;;;;;;;1.40;1.30;;;7.50;86.00;;;;;;4887063;29;20246;-72
2021/04/16 19:28:28;;;;;;;1.52;1.42;;;7.50;85.80;;;;;;4878248;29;20208;-72
2021/04/16 19:30:58;;;;;;;1.20;1.20;;;7.50;86.10;;;;;;4878541;29;20850;-71